Time;durP1;ratioP1;P1;durP2;ratioP2;P2;SDS_P1;SDS_P2;PMS_P1;PMS_P2;Temp;Humidity;BMP_temperature;BMP_pressure;BME280_temperature;BME280_humidity;BME280_pressure;Samples;Min_cycle;Max_cycle;Signal;HPM_P1;HPM_P2
2022/11/29 00:01:17;;;;;;;49.70;32.97;;;2.90;99.90;;;;;;5049454;28;20063;-50
2022/11/29 00:03:42;;;;;;;49.72;34.17;;;2.90;99.90;;;;;;5049472;28;20018;-51
2022/11/29 00:06:11;;;;;;;54.95;34.70;;;3.00;99.90;;;;;;5049429;28;20032;-50
2022/11/29 00:08:37;;;;;;;52.13;33.88;;;3.00;99.90;;;;;;5047432;28;20645;-50
2022/11/29 00:11:04;;;;;;;55.97;35.53;;;3.00;99.90;;;;;;5048915;28;20045;-51
2022/11/29 00:13:30;;;;;;;51.22;34.95;;;3.00;99.90;;;;;;5049300;28;20108;-51
2022/11/29 00:16:10;;;;;;;53.75;36.03;;;2.90;99.90;;;;;;5047822;28;20759;-51
2022/11/29 00:18:36;;;;;;;54.35;34.33;;;2.90;99.90;;;;;;5049357;28;20013;-55
2022/11/29 00:21:07;;;;;;;51.50;35.70;;;2.90;99.90;;;;;;5049071;28;20523;-50
2022/11/29 00:23:33;;;;;;;52.45;34.38;;;2.90;99.90;;;;;;5048829;28;20473;-52
2022/11/29 00:26:06;;;;;;;53.63;34.42;;;2.90;99.90;;;;;;5048745;28;20384;-51
2022/11/29 00:28:32;;;;;;;;;;;2.90;99.90;;;;;;5049232;28;20021;-52
2022/11/29 00:30:58;;;;;;;56.58;37.13;;;2.90;99.90;;;;;;5048589;28;19916;-50
2022/11/29 00:33:23;;;;;;;50.38;33.95;;;2.90;99.90;;;;;;5048687;28;20032;-52
2022/11/29 00:35:49;;;;;;;55.72;36.10;;;2.90;99.90;;;;;;5048903;28;20029;-51
2022/11/29 00:38:14;;;;;;;46.83;33.17;;;2.90;99.90;;;;;;5048901;28;20029;-51
2022/11/29 00:40:40;;;;;;;55.92;37.85;;;3.00;99.90;;;;;;5048968;28;20033;-53
2022/11/29 00:43:06;;;;;;;54.95;35.08;;;3.00;99.90;;;;;;5048651;28;20025;-50
2022/11/29 00:45:31;;;;;;;57.22;37.03;;;3.00;99.90;;;;;;5047601;28;20082;-52
2022/11/29 00:47:57;;;;;;;57.60;35.00;;;3.00;99.90;;;;;;5048606;28;20052;-50
2022/11/29 00:50:23;;;;;;;58.05;35.45;;;3.00;99.90;;;;;;5048683;28;20405;-52
2022/11/29 00:52:48;;;;;;;55.10;36.38;;;3.00;99.90;;;;;;5048502;28;20013;-50
2022/11/29 00:55:14;;;;;;;51.90;33.58;;;3.10;99.90;;;;;;5048699;28;20023;-53
2022/11/29 00:57:40;;;;;;;55.17;34.22;;;3.10;99.90;;;;;;5048740;28;20029;-52
2022/11/29 01:00:06;;;;;;;56.60;34.78;;;3.00;99.90;;;;;;5048426;28;20048;-49
2022/11/29 01:02:32;;;;;;;57.20;34.25;;;3.00;99.90;;;;;;5048770;28;20069;-51
2022/11/29 01:04:58;;;;;;;51.65;34.20;;;2.90;99.90;;;;;;5048553;28;20405;-51
2022/11/29 01:07:23;;;;;;;50.97;33.38;;;2.90;99.90;;;;;;5048548;28;20036;-51
2022/11/29 01:09:49;;;;;;;57.42;36.33;;;3.00;99.90;;;;;;5048203;28;20049;-50
2022/11/29 01:12:15;;;;;;;49.90;34.00;;;3.00;99.90;;;;;;5048391;28;20117;-51
2022/11/29 01:14:41;;;;;;;53.90;36.20;;;3.00;99.90;;;;;;5047233;28;20456;-51
2022/11/29 01:17:07;;;;;;;50.25;34.10;;;3.00;99.90;;;;;;5048460;28;20025;-51
2022/11/29 01:19:32;;;;;;;50.33;34.10;;;2.90;99.90;;;;;;5048393;28;20052;-51
2022/11/29 01:21:58;;;;;;;49.50;33.38;;;2.90;99.90;;;;;;5050492;28;20025;-51
2022/11/29 01:24:24;;;;;;;56.35;35.72;;;2.90;99.90;;;;;;5051849;28;20408;-51
2022/11/29 01:26:49;;;;;;;58.22;37.05;;;2.90;99.90;;;;;;5051722;28;20031;-50
2022/11/29 01:29:15;;;;;;;54.92;35.35;;;2.90;99.90;;;;;;5051733;28;20123;-49
2022/11/29 01:31:40;;;;;;;49.83;34.45;;;2.90;99.90;;;;;;5051794;28;20043;-53
2022/11/29 01:34:06;;;;;;;56.30;35.38;;;2.90;99.90;;;;;;5050409;28;20078;-51
2022/11/29 01:36:33;;;;;;;50.63;34.38;;;2.90;99.90;;;;;;5051916;28;20024;-50
2022/11/29 01:39:00;;;;;;;56.22;33.72;;;2.90;99.90;;;;;;5051458;28;20074;-52
2022/11/29 01:41:29;;;;;;;52.33;34.30;;;2.90;99.90;;;;;;5051704;28;20017;-51
2022/11/29 01:43:58;;;;;;;53.67;34.10;;;2.90;99.90;;;;;;5051411;28;20025;-50
2022/11/29 01:46:24;;;;;;;47.65;32.50;;;2.90;99.90;;;;;;5051588;28;20124;-52
2022/11/29 01:48:53;;;;;;;55.42;33.92;;;2.90;99.90;;;;;;5051360;28;20074;-51
2022/11/29 01:51:20;;;;;;;45.83;31.70;;;2.90;99.90;;;;;;5049923;28;20049;-50
2022/11/29 01:53:46;;;;;;;52.40;33.03;;;2.90;99.90;;;;;;5051290;28;20021;-52
2022/11/29 01:56:13;;;;;;;56.22;33.45;;;2.90;99.90;;;;;;5051586;28;20348;-51
2022/11/29 01:58:42;;;;;;;54.65;33.40;;;2.80;99.90;;;;;;5051405;28;20021;-51
2022/11/29 02:01:08;;;;;;;55.50;32.35;;;2.80;99.90;;;;;;5051395;28;20027;-53
2022/11/29 02:03:34;;;;;;;57.40;35.17;;;2.80;99.90;;;;;;5051282;28;20098;-54
2022/11/29 02:06:00;;;;;;;45.15;32.05;;;2.80;99.90;;;;;;5050990;28;20052;-51
2022/11/29 02:08:36;;;;;;;58.97;31.90;;;2.80;99.90;;;;;;5050001;28;20081;-51
2022/11/29 02:11:14;;;;;;;49.03;30.77;;;2.80;99.90;;;;;;5050828;28;20045;-51
2022/11/29 02:14:04;;;;;;;48.40;29.92;;;2.70;99.90;;;;;;5051252;28;20119;-49
2022/11/29 02:17:10;;;;;;;44.20;30.83;;;2.70;99.90;;;;;;5049777;27;20025;-50
2022/11/29 02:20:10;;;;;;;50.30;32.00;;;2.80;99.90;;;;;;4989287;28;20034;-52
2022/11/29 02:22:46;;;;;;;48.45;30.48;;;2.80;99.90;;;;;;5051046;28;20044;-50
2022/11/29 02:25:45;;;;;;;48.38;29.35;;;2.80;99.90;;;;;;5051131;28;20510;-51
2022/11/29 02:28:38;;;;;;;48.20;30.60;;;2.80;99.90;;;;;;5050837;28;20029;-50
2022/11/29 02:31:21;;;;;;;48.03;30.40;;;2.80;99.90;;;;;;5050570;28;20033;-51
2022/11/29 02:33:56;;;;;;;57.28;31.73;;;2.80;99.90;;;;;;5050410;28;20029;-50
2022/11/29 02:36:30;;;;;;;46.85;29.58;;;2.80;99.90;;;;;;5050856;28;20100;-51
2022/11/29 02:39:11;;;;;;;49.10;31.50;;;2.70;99.90;;;;;;5050619;28;20025;-51
2022/11/29 02:42:03;;;;;;;47.08;31.75;;;2.70;99.90;;;;;;5050816;28;20423;-52
2022/11/29 02:47:50;;;;;;;52.85;31.98;;;2.70;99.90;;;;;;5050526;28;20624;-49
2022/11/29 02:50:19;;;;;;;49.25;31.85;;;2.70;99.90;;;;;;5050502;28;20021;-53
2022/11/29 02:53:02;;;;;;;47.00;31.23;;;2.70;99.90;;;;;;5050366;28;20013;-50
2022/11/29 02:55:40;;;;;;;48.22;31.30;;;2.70;99.90;;;;;;5050508;28;20017;-50
2022/11/29 02:58:22;;;;;;;51.13;32.95;;;2.80;99.90;;;;;;5050257;28;20118;-53
2022/11/29 03:01:05;;;;;;;53.10;32.88;;;2.70;99.90;;;;;;5050370;28;20394;-52
2022/11/29 03:04:05;;;;;;;46.05;30.02;;;2.70;99.90;;;;;;5050477;28;20025;-53
2022/11/29 03:06:37;;;;;;;47.60;30.10;;;2.70;99.90;;;;;;5049949;28;20072;-53
2022/11/29 03:09:47;;;;;;;46.28;29.35;;;2.70;99.90;;;;;;5049953;28;20490;-49
2022/11/29 03:12:44;;;;;;;44.38;29.17;;;2.70;99.90;;;;;;5034782;28;20040;-50
2022/11/29 03:15:40;;;;;;;44.72;29.13;;;2.70;99.90;;;;;;5050266;28;20036;-49
2022/11/29 03:18:36;;;;;;;55.33;32.78;;;2.60;99.90;;;;;;5048894;28;20464;-50
2022/11/29 03:21:44;;;;;;;44.72;29.15;;;2.60;99.90;;;;;;5049899;28;20040;-51
2022/11/29 03:24:28;;;;;;;45.95;27.98;;;2.60;99.90;;;;;;5041608;28;20074;-51
2022/11/29 03:29:58;;;;;;;44.15;29.48;;;2.60;99.90;;;;;;5049794;28;20040;-52
2022/11/29 03:32:33;;;;;;;46.40;29.27;;;2.60;99.90;;;;;;5049921;28;20516;-52
2022/11/29 03:35:13;;;;;;;50.35;30.23;;;2.60;99.90;;;;;;5049729;28;20037;-52
2022/11/29 03:37:50;;;;;;;52.00;30.92;;;2.60;99.90;;;;;;5049855;28;20031;-54
2022/11/29 03:40:26;;;;;;;52.42;32.42;;;2.60;99.90;;;;;;5049881;28;20021;-53
2022/11/29 03:43:19;;;;;;;52.58;30.35;;;2.60;99.90;;;;;;5049654;28;20465;-50
2022/11/29 03:45:58;;;;;;;55.25;31.98;;;2.60;99.90;;;;;;5049330;28;20032;-52
2022/11/29 03:48:33;;;;;;;51.13;32.20;;;2.60;99.90;;;;;;5049785;28;20051;-53
2022/11/29 03:51:06;;;;;;;58.40;30.73;;;2.60;99.90;;;;;;5049496;28;20024;-52
2022/11/29 03:54:01;;;;;;;51.05;30.02;;;2.60;99.90;;;;;;5049575;28;20021;-49
2022/11/29 03:56:29;;;;;;;46.05;31.80;;;2.60;99.90;;;;;;5049464;28;20459;-50
2022/11/29 03:59:12;;;;;;;48.47;32.13;;;2.60;99.90;;;;;;5049484;28;20429;-50
2022/11/29 04:01:41;;;;;;;44.13;29.90;;;2.60;99.90;;;;;;5049484;28;20033;-51
2022/11/29 04:04:50;;;;;;;50.45;31.38;;;2.60;99.90;;;;;;5049342;28;20029;-51
2022/11/29 04:07:33;;;;;;;50.03;32.78;;;2.60;99.90;;;;;;5044617;28;20037;-54
2022/11/29 04:10:17;;;;;;;;;;;2.60;99.90;;;;;;5049504;28;20033;-55
2022/11/29 04:13:20;;;;;;;44.25;27.15;;;2.50;99.90;;;;;;5049134;28;19995;-51
2022/11/29 04:16:14;;;;;;;52.33;30.42;;;2.60;99.90;;;;;;5049038;28;20017;-50
2022/11/29 04:18:58;;;;;;;44.07;28.03;;;2.60;99.90;;;;;;5049416;28;20404;-55
2022/11/29 04:21:30;;;;;;;46.17;30.52;;;2.60;99.90;;;;;;5048977;28;20033;-52
2022/11/29 04:24:18;;;;;;;46.15;29.88;;;2.50;99.90;;;;;;5049116;28;20455;-51
2022/11/29 04:26:52;;;;;;;47.78;30.38;;;2.60;99.90;;;;;;5048868;28;20471;-55
2022/11/29 04:29:20;;;;;;;53.88;30.60;;;2.60;99.90;;;;;;5048727;28;20100;-50
2022/11/29 04:32:05;;;;;;;46.88;30.63;;;2.60;99.90;;;;;;5048000;28;20021;-49
2022/11/29 04:34:46;;;;;;;49.75;31.85;;;2.60;99.90;;;;;;5048290;28;20017;-53
2022/11/29 04:37:58;;;;;;;52.72;32.70;;;2.60;99.90;;;;;;5048647;28;20097;-52
2022/11/29 04:40:46;;;;;;;49.17;30.92;;;2.60;99.90;;;;;;5034382;28;20052;-50
2022/11/29 04:43:26;;;;;;;49.50;30.58;;;2.60;99.90;;;;;;5047858;28;20104;-50
2022/11/29 04:45:52;;;;;;;47.88;31.17;;;2.60;99.90;;;;;;5048040;28;20025;-51
2022/11/29 04:48:48;;;;;;;49.30;32.75;;;2.50;99.90;;;;;;5048630;28;20429;-51
2022/11/29 04:51:28;;;;;;;49.88;33.00;;;2.50;99.90;;;;;;5048571;28;20053;-53
2022/11/29 04:54:16;;;;;;;57.17;34.00;;;2.50;99.90;;;;;;5048466;28;20044;-50
2022/11/29 04:56:49;;;;;;;53.67;32.20;;;2.50;99.90;;;;;;5047257;28;20017;-51
2022/11/29 04:59:37;;;;;;;56.72;34.10;;;2.60;99.90;;;;;;5048678;28;20033;-52
2022/11/29 05:02:39;;;;;;;52.78;31.27;;;2.60;99.90;;;;;;5048535;28;20367;-51
2022/11/29 05:05:17;;;;;;;48.80;30.25;;;2.60;99.90;;;;;;5048454;28;20033;-50
2022/11/29 05:07:43;;;;;;;46.00;29.25;;;2.50;99.90;;;;;;5048283;28;20016;-52
2022/11/29 05:10:43;;;;;;;46.05;30.00;;;2.60;99.90;;;;;;5048170;28;20041;-53
2022/11/29 05:13:35;;;;;;;51.80;31.73;;;2.50;99.90;;;;;;5048491;28;20025;-49
2022/11/29 05:16:22;;;;;;;64.35;34.15;;;2.50;99.90;;;;;;5048041;28;20028;-52
2022/11/29 05:18:57;;;;;;;54.92;32.13;;;2.50;99.90;;;;;;5048353;28;20066;-52
2022/11/29 05:21:46;;;;;;;63.83;34.42;;;2.50;99.90;;;;;;5048201;28;20013;-53
2022/11/29 05:24:26;;;;;;;61.22;32.95;;;2.40;99.90;;;;;;5048427;28;20021;-54
2022/11/29 05:27:07;;;;;;;51.47;31.02;;;2.50;99.90;;;;;;5048175;28;20021;-55
2022/11/29 05:30:03;;;;;;;61.50;34.00;;;2.50;99.90;;;;;;5048220;28;20029;-50
2022/11/29 05:33:10;;;;;;;55.50;32.25;;;2.50;99.90;;;;;;5048151;28;20036;-51
2022/11/29 05:36:09;;;;;;;53.17;31.02;;;2.50;99.90;;;;;;5047862;28;20085;-54
2022/11/29 05:38:37;;;;;;;61.33;31.33;;;2.50;99.90;;;;;;5047840;28;20022;-52
2022/11/29 05:41:48;;;;;;;54.38;30.58;;;2.50;99.90;;;;;;5047931;28;20037;-50
2022/11/29 05:44:28;;;;;;;57.88;31.88;;;2.50;99.90;;;;;;5014210;28;20045;-52
2022/11/29 05:47:03;;;;;;;53.33;32.92;;;2.50;99.90;;;;;;5047840;28;20034;-49
2022/11/29 05:49:56;;;;;;;57.55;33.75;;;2.50;99.90;;;;;;5047899;28;20036;-52
2022/11/29 05:52:43;;;;;;;53.33;32.92;;;2.50;99.90;;;;;;5047970;28;20021;-51
2022/11/29 05:55:36;;;;;;;47.30;28.55;;;2.60;99.90;;;;;;5047767;28;20021;-48
2022/11/29 05:58:21;;;;;;;49.35;30.42;;;2.50;99.90;;;;;;5036205;28;20052;-49
2022/11/29 06:00:55;;;;;;;55.10;30.20;;;2.50;99.90;;;;;;5046308;28;20037;-51
2022/11/29 06:03:49;;;;;;;48.25;30.85;;;2.50;99.90;;;;;;5046454;28;20021;-49
2022/11/29 06:06:42;;;;;;;52.70;31.30;;;2.50;99.90;;;;;;5046539;28;20052;-51
2022/11/29 06:09:18;;;;;;;48.92;29.85;;;2.60;99.90;;;;;;5042970;28;20446;-51
2022/11/29 06:11:53;;;;;;;48.90;29.95;;;2.50;99.90;;;;;;5049627;28;20049;-50
2022/11/29 06:14:50;;;;;;;51.65;29.83;;;2.50;99.90;;;;;;5049740;28;20490;-49
2022/11/29 06:17:31;;;;;;;53.78;31.15;;;2.50;99.90;;;;;;5049974;28;20020;-52
2022/11/29 06:20:35;;;;;;;57.83;30.02;;;2.60;99.90;;;;;;5049781;28;20555;-50
2022/11/29 06:23:23;;;;;;;54.00;29.13;;;2.60;99.90;;;;;;5049627;28;20044;-50
2022/11/29 06:26:16;;;;;;;49.30;30.73;;;2.60;99.90;;;;;;5049500;28;20029;-53
2022/11/29 06:29:18;;;;;;;46.07;28.50;;;2.60;99.90;;;;;;5049768;28;20025;-51
2022/11/29 06:31:51;;;;;;;51.17;28.52;;;2.60;99.90;;;;;;5049504;28;20021;-50
2022/11/29 06:34:58;;;;;;;46.30;28.08;;;2.60;99.90;;;;;;5049702;28;20021;-52
2022/11/29 06:37:31;;;;;;;46.20;28.00;;;2.60;99.90;;;;;;5049670;28;20021;-51
2022/11/29 06:39:57;;;;;;;44.85;28.98;;;2.60;99.90;;;;;;5049437;28;20021;-50
2022/11/29 06:42:23;;;;;;;50.88;28.98;;;2.50;99.90;;;;;;5048228;28;20032;-49
2022/11/29 06:44:49;;;;;;;50.15;30.15;;;2.50;99.90;;;;;;5049343;28;20068;-50
2022/11/29 06:47:27;;;;;;;47.95;28.38;;;2.50;99.90;;;;;;5049405;28;20032;-49
2022/11/29 06:50:19;;;;;;;51.65;29.85;;;2.50;99.90;;;;;;5049136;28;20103;-49
2022/11/29 06:52:57;;;;;;;49.08;30.48;;;2.50;99.90;;;;;;5018018;28;20033;-50
2022/11/29 06:55:51;;;;;;;49.63;29.75;;;2.50;99.90;;;;;;5049229;28;20017;-49
2022/11/29 06:58:35;;;;;;;;;;;2.50;99.90;;;;;;5048485;28;20471;-50
2022/11/29 07:01:10;;;;;;;;;;;2.50;99.90;;;;;;5049689;28;19969;-55
2022/11/29 07:03:49;;;;;;;72.40;38.78;;;2.50;99.90;;;;;;5049236;28;20304;-50
2022/11/29 07:06:22;;;;;;;59.05;34.08;;;2.50;99.90;;;;;;5049166;28;20104;-51
2022/11/29 07:08:54;;;;;;;54.50;33.00;;;2.50;99.90;;;;;;5048873;28;20021;-52
2022/11/29 07:11:20;;;;;;;56.30;31.02;;;2.50;99.90;;;;;;5048788;28;20074;-50
2022/11/29 07:13:46;;;;;;;62.72;35.20;;;2.50;99.90;;;;;;5049084;28;20025;-52
2022/11/29 07:16:15;;;;;;;58.20;32.38;;;2.50;99.90;;;;;;5048826;28;20025;-50
2022/11/29 07:19:02;;;;;;;61.15;34.05;;;2.50;99.90;;;;;;5048898;28;20025;-50
2022/11/29 07:21:33;;;;;;;64.35;35.17;;;2.50;99.90;;;;;;5049116;28;20048;-50
2022/11/29 07:24:47;;;;;;;59.75;32.97;;;2.50;99.90;;;;;;5047492;28;20128;-51
2022/11/29 07:27:21;;;;;;;57.70;32.05;;;2.60;99.90;;;;;;5043181;28;20033;-50
2022/11/29 07:30:05;;;;;;;68.13;35.95;;;2.60;99.90;;;;;;5048491;28;20028;-52
2022/11/29 07:32:36;;;;;;;64.07;37.72;;;2.70;99.90;;;;;;5048580;28;20031;-50
2022/11/29 07:35:13;;;;;;;55.10;32.63;;;2.70;99.90;;;;;;5048485;28;20029;-49
2022/11/29 07:38:08;;;;;;;55.85;33.10;;;2.70;99.90;;;;;;5047592;28;20017;-53
2022/11/29 07:40:56;;;;;;;59.53;35.92;;;2.70;99.90;;;;;;5047322;28;20044;-50
2022/11/29 07:43:45;;;;;;;63.42;33.03;;;2.70;99.90;;;;;;5048495;28;20029;-51
2022/11/29 07:46:11;;;;;;;57.70;30.50;;;2.80;99.90;;;;;;5048549;28;20021;-51
2022/11/29 07:48:36;;;;;;;55.38;30.67;;;2.80;99.90;;;;;;5048546;28;20077;-50
2022/11/29 07:51:02;;;;;;;54.67;30.90;;;2.70;99.90;;;;;;5048108;28;20036;-52
2022/11/29 07:53:29;;;;;;;48.92;30.67;;;2.80;99.90;;;;;;5048425;28;20056;-51
2022/11/29 07:55:57;;;;;;;57.38;31.92;;;2.80;99.90;;;;;;5048218;28;20360;-51
2022/11/29 07:58:23;;;;;;;54.80;30.23;;;2.80;99.90;;;;;;5048296;28;20029;-50
2022/11/29 08:00:49;;;;;;;45.58;28.60;;;2.80;99.90;;;;;;5048055;28;20055;-51
2022/11/29 08:03:14;;;;;;;56.15;31.27;;;2.90;99.90;;;;;;5048273;28;20025;-50
2022/11/29 08:05:45;;;;;;;51.80;29.15;;;3.00;99.90;;;;;;5048384;28;20051;-53
2022/11/29 08:08:10;;;;;;;52.70;31.30;;;3.10;99.90;;;;;;5046910;28;20025;-49
2022/11/29 08:10:37;;;;;;;51.88;30.55;;;3.10;99.90;;;;;;5047831;28;20038;-52
2022/11/29 08:13:02;;;;;;;53.88;29.85;;;3.10;99.90;;;;;;5048016;28;20017;-50
2022/11/29 08:15:28;;;;;;;52.58;29.80;;;3.10;99.90;;;;;;5048097;28;20036;-49
2022/11/29 08:17:54;;;;;;;50.30;32.40;;;3.00;99.90;;;;;;5047925;28;20021;-50
2022/11/29 08:20:19;;;;;;;47.17;30.48;;;3.10;99.90;;;;;;5047946;28;20021;-50
2022/11/29 08:22:56;;;;;;;49.35;28.88;;;3.10;99.90;;;;;;5047786;28;20025;-55
2022/11/29 08:25:21;;;;;;;59.42;29.65;;;3.10;99.90;;;;;;5047911;28;20024;-49
2022/11/29 08:27:47;;;;;;;51.60;28.05;;;3.00;99.90;;;;;;5047738;28;20040;-54
2022/11/29 08:30:13;;;;;;;49.42;30.67;;;3.10;99.90;;;;;;5047316;28;20443;-52
2022/11/29 08:32:38;;;;;;;51.40;29.90;;;3.10;99.90;;;;;;5047880;28;20066;-50
2022/11/29 08:35:04;;;;;;;43.03;27.27;;;3.20;99.90;;;;;;5047552;28;20104;-50
2022/11/29 08:37:30;;;;;;;60.92;31.08;;;3.20;99.90;;;;;;5048064;28;20435;-51
2022/11/29 08:39:57;;;;;;;49.72;30.30;;;3.30;99.90;;;;;;5047675;28;20028;-51
2022/11/29 08:42:22;;;;;;;61.67;33.67;;;3.30;99.90;;;;;;5047658;28;20054;-50
2022/11/29 08:44:48;;;;;;;50.95;29.95;;;3.30;99.90;;;;;;5047415;28;20411;-49
2022/11/29 08:50:00;;;;;;;48.15;28.65;;;3.30;99.90;;;;;;5047285;28;20035;-52
2022/11/29 08:55:23;;;;;;;59.80;29.20;;;3.50;99.90;;;;;;5047840;28;20056;-50
2022/11/29 08:57:50;;;;;;;45.20;28.85;;;3.50;99.90;;;;;;5046022;28;20013;-52
2022/11/29 09:00:17;;;;;;;48.20;28.48;;;3.60;99.90;;;;;;5047505;28;20391;-49
2022/11/29 09:02:43;;;;;;;47.97;27.65;;;3.60;99.90;;;;;;5047321;28;20436;-51
2022/11/29 09:05:10;;;;;;;76.72;42.72;;;3.50;99.90;;;;;;5046094;28;20059;-52
2022/11/29 09:07:36;;;;;;;79.60;33.13;;;3.60;99.90;;;;;;5047468;28;20025;-49
2022/11/29 09:10:06;;;;;;;47.20;27.70;;;3.60;99.90;;;;;;5046855;28;20049;-50
2022/11/29 09:12:34;;;;;;;46.50;27.40;;;3.70;99.90;;;;;;5047241;28;20033;-53
2022/11/29 09:14:59;;;;;;;55.78;28.90;;;3.70;99.90;;;;;;5047144;28;20029;-51
2022/11/29 09:17:26;;;;;;;51.70;27.17;;;3.80;99.90;;;;;;5047293;28;20024;-52
2022/11/29 09:19:51;;;;;;;52.15;29.13;;;3.80;99.90;;;;;;5047112;28;20494;-51
2022/11/29 09:22:17;;;;;;;51.25;29.52;;;3.70;99.90;;;;;;5047214;28;20025;-50
2022/11/29 09:24:45;;;;;;;51.70;29.08;;;3.70;99.90;;;;;;5045878;28;20074;-55
2022/11/29 09:27:10;;;;;;;60.38;34.67;;;3.80;99.90;;;;;;5047118;28;20033;-52
2022/11/29 09:29:36;;;;;;;55.10;31.40;;;3.60;99.90;;;;;;5047022;28;20052;-48
2022/11/29 09:32:01;;;;;;;50.15;29.35;;;3.60;99.90;;;;;;5046868;28;20145;-50
2022/11/29 09:34:27;;;;;;;66.05;38.35;;;3.60;99.90;;;;;;5047066;28;20073;-49
2022/11/29 09:36:53;;;;;;;75.93;40.72;;;3.60;99.90;;;;;;5046816;28;20025;-53
2022/11/29 09:39:18;;;;;;;57.60;36.13;;;3.60;99.90;;;;;;5047093;28;20532;-50
2022/11/29 09:42:14;;;;;;;51.60;30.95;;;3.60;99.90;;;;;;5047048;28;20024;-53
2022/11/29 09:45:03;;;;;;;46.83;27.85;;;3.60;99.90;;;;;;5049049;28;20073;-52
2022/11/29 09:47:30;;;;;;;55.60;29.52;;;3.60;99.90;;;;;;5041951;28;20089;-48
2022/11/29 09:50:20;;;;;;;51.33;28.88;;;3.50;99.90;;;;;;5050067;28;20033;-53
2022/11/29 09:53:19;;;;;;;49.67;26.45;;;3.60;99.90;;;;;;5050180;28;20058;-53
2022/11/29 09:56:13;;;;;;;47.83;27.35;;;3.60;99.90;;;;;;5049870;28;20245;-53
2022/11/29 09:59:03;;;;;;;46.83;27.08;;;3.60;99.90;;;;;;5050243;28;20082;-50
2022/11/29 10:01:36;;;;;;;41.65;25.90;;;3.60;99.90;;;;;;5050190;28;20070;-50
2022/11/29 10:04:11;;;;;;;46.00;26.53;;;3.70;99.90;;;;;;5047236;28;20025;-51
2022/11/29 10:07:03;;;;;;;48.83;27.40;;;3.80;99.90;;;;;;5047609;28;20021;-52
2022/11/29 10:09:56;;;;;;;46.63;26.65;;;3.80;99.90;;;;;;5049584;28;20048;-52
2022/11/29 10:12:41;;;;;;;52.05;28.13;;;3.90;99.90;;;;;;5050031;28;20013;-51
2022/11/29 10:15:19;;;;;;;45.30;27.27;;;3.80;99.90;;;;;;5049586;28;20025;-55
2022/11/29 10:17:57;;;;;;;46.60;26.20;;;3.90;99.90;;;;;;5049505;28;20021;-50
2022/11/29 10:20:36;;;;;;;45.65;26.73;;;3.90;99.90;;;;;;5049837;28;20043;-51
2022/11/29 10:23:28;;;;;;;43.85;25.33;;;4.00;99.90;;;;;;5049559;28;20535;-51
2022/11/29 10:25:56;;;;;;;49.60;29.02;;;4.00;99.90;;;;;;5049502;28;20029;-54
2022/11/29 10:28:25;;;;;;;52.42;28.38;;;4.10;99.90;;;;;;5049515;28;20116;-51
2022/11/29 10:30:57;;;;;;;45.53;26.60;;;4.00;99.90;;;;;;5049346;28;20032;-51
2022/11/29 10:33:29;;;;;;;47.58;25.85;;;4.00;99.90;;;;;;5049564;28;20120;-50
2022/11/29 10:35:57;;;;;;;54.17;29.77;;;4.00;99.90;;;;;;5049360;28;20080;-52
2022/11/29 10:38:23;;;;;;;58.33;31.00;;;4.00;99.90;;;;;;5049346;28;20471;-49
2022/11/29 10:40:58;;;;;;;48.97;29.02;;;3.90;99.90;;;;;;5049044;28;20064;-50
2022/11/29 10:43:25;;;;;;;50.83;28.58;;;3.80;99.90;;;;;;5049336;28;20021;-50
2022/11/29 10:45:54;;;;;;;53.63;28.83;;;3.70;99.90;;;;;;5048824;28;20215;-54
2022/11/29 10:48:23;;;;;;;51.40;28.02;;;3.70;99.90;;;;;;5049616;28;20112;-51
2022/11/29 10:50:51;;;;;;;47.08;26.90;;;3.70;99.90;;;;;;5049379;28;20029;-52
2022/11/29 10:53:21;;;;;;;47.97;29.77;;;3.80;99.90;;;;;;5049369;28;20017;-53
2022/11/29 10:56:05;;;;;;;53.00;28.27;;;3.80;99.90;;;;;;5048968;27;20017;-51
2022/11/29 10:58:31;;;;;;;49.88;28.52;;;3.90;99.90;;;;;;5049261;27;20024;-51
2022/11/29 11:01:00;;;;;;;48.50;26.42;;;3.90;99.90;;;;;;5049018;28;20093;-53
2022/11/29 11:03:48;;;;;;;46.63;26.88;;;4.00;99.90;;;;;;5049118;27;20029;-54
2022/11/29 11:06:18;;;;;;;65.18;33.10;;;4.00;99.90;;;;;;5049019;27;20110;-52
2022/11/29 11:09:10;;;;;;;78.45;36.63;;;4.10;99.90;;;;;;5048788;28;20056;-51
2022/11/29 11:11:37;;;;;;;105.00;44.55;;;4.00;99.90;;;;;;5048965;27;20033;-52
2022/11/29 11:14:17;;;;;;;91.47;38.80;;;4.00;99.90;;;;;;5048622;28;20467;-50
2022/11/29 11:16:42;;;;;;;92.55;40.22;;;4.00;99.90;;;;;;5048800;28;20021;-53
2022/11/29 11:19:28;;;;;;;96.95;41.55;;;4.00;99.90;;;;;;5048774;28;20021;-50
2022/11/29 11:21:56;;;;;;;120.20;43.97;;;4.00;99.90;;;;;;5048678;27;20025;-50
2022/11/29 11:24:26;;;;;;;130.57;47.40;;;4.00;99.90;;;;;;5047428;28;20025;-51
2022/11/29 11:26:51;;;;;;;124.45;48.47;;;4.10;99.90;;;;;;5048573;27;20069;-52
2022/11/29 11:29:22;;;;;;;88.40;39.08;;;4.00;99.90;;;;;;5048650;27;20021;-50
2022/11/29 11:31:54;;;;;;;72.22;36.63;;;4.10;99.90;;;;;;5048613;28;20029;-51
2022/11/29 11:34:37;;;;;;;59.03;31.30;;;4.10;99.90;;;;;;5048425;27;20060;-51
2022/11/29 11:37:14;;;;;;;54.63;29.73;;;4.00;99.90;;;;;;5048264;28;20028;-49
2022/11/29 11:39:46;;;;;;;56.60;32.30;;;3.90;99.90;;;;;;5048815;28;20025;-50
2022/11/29 11:45:11;;;;;;;50.53;28.65;;;3.80;99.90;;;;;;5048637;28;20089;-50
2022/11/29 11:47:41;;;;;;;65.30;29.05;;;3.80;99.90;;;;;;5048377;28;20464;-50
2022/11/29 11:50:11;;;;;;;51.42;27.08;;;3.90;99.90;;;;;;5048116;28;20073;-52
2022/11/29 11:52:43;;;;;;;47.60;25.77;;;3.90;99.90;;;;;;5048204;28;20048;-51
2022/11/29 11:55:20;;;;;;;54.40;27.17;;;3.90;99.90;;;;;;5048478;28;20420;-50
2022/11/29 11:58:12;;;;;;;50.22;28.23;;;3.90;99.90;;;;;;5047836;28;20029;-50
2022/11/29 12:00:42;;;;;;;56.85;31.58;;;3.90;99.90;;;;;;5019960;28;20492;-51
2022/11/29 12:03:38;;;;;;;52.47;28.52;;;3.90;99.90;;;;;;5028292;28;20543;-51
2022/11/29 12:06:27;;;;;;;51.22;27.42;;;4.00;99.90;;;;;;5027236;28;20018;-48
2022/11/29 12:09:15;;;;;;;54.65;27.27;;;4.10;99.90;;;;;;5028047;28;20017;-51
2022/11/29 12:12:01;;;;;;;50.45;27.17;;;4.10;99.90;;;;;;5037455;28;20438;-50
2022/11/29 12:14:39;;;;;;;50.58;27.73;;;4.10;99.90;;;;;;5046336;28;20036;-50
2022/11/29 12:17:40;;;;;;;58.85;29.15;;;4.10;99.90;;;;;;5047704;27;20497;-50
2022/11/29 12:20:16;;;;;;;50.47;27.05;;;4.10;99.90;;;;;;5048076;28;20048;-49
2022/11/29 12:23:12;;;;;;;52.50;27.60;;;4.00;99.90;;;;;;5047759;27;20021;-50
2022/11/29 12:25:49;;;;;;;50.28;26.80;;;4.00;99.90;;;;;;5047820;28;20036;-53
2022/11/29 12:28:17;;;;;;;50.97;28.25;;;4.00;99.90;;;;;;5047790;28;20112;-50
2022/11/29 12:30:54;;;;;;;53.08;27.73;;;4.00;99.90;;;;;;5047732;27;20111;-51
2022/11/29 12:34:04;;;;;;;45.65;26.23;;;4.00;99.90;;;;;;5047685;28;20056;-51
2022/11/29 12:36:32;;;;;;;49.35;24.70;;;4.00;99.90;;;;;;5032041;28;20033;-49
2022/11/29 12:39:24;;;;;;;54.05;28.73;;;4.00;99.90;;;;;;5047515;28;20471;-50
2022/11/29 12:42:24;;;;;;;47.10;25.30;;;4.00;99.90;;;;;;5044404;28;20049;-50
2022/11/29 12:45:01;;;;;;;58.47;28.27;;;4.00;99.90;;;;;;5047265;27;20029;-53
2022/11/29 12:47:49;;;;;;;51.83;26.98;;;4.00;99.90;;;;;;5046201;28;20063;-55
2022/11/29 12:50:54;;;;;;;53.17;27.75;;;4.00;99.90;;;;;;5047336;27;20039;-50
2022/11/29 12:53:42;;;;;;;57.30;31.17;;;4.10;99.90;;;;;;5047301;27;20104;-51
2022/11/29 12:56:13;;;;;;;85.00;42.08;;;4.10;99.90;;;;;;5047305;28;20025;-56
2022/11/29 12:59:12;;;;;;;67.75;36.58;;;4.10;99.90;;;;;;5047447;27;20384;-50
2022/11/29 13:01:38;;;;;;;57.45;33.03;;;4.20;99.90;;;;;;5046127;28;20028;-51
2022/11/29 13:04:27;;;;;;;63.33;35.05;;;4.30;99.90;;;;;;5047022;28;20148;-49
2022/11/29 13:07:02;;;;;;;52.63;27.92;;;4.30;99.90;;;;;;5046912;27;20025;-53
2022/11/29 13:09:43;;;;;;;60.35;27.40;;;4.30;99.90;;;;;;5046737;27;20441;-53
2022/11/29 13:12:38;;;;;;;45.00;26.25;;;4.30;99.90;;;;;;5047019;28;20108;-49
2022/11/29 13:15:16;;;;;;;55.95;31.60;;;4.20;99.90;;;;;;5046831;28;20082;-52
2022/11/29 13:17:51;;;;;;;54.30;28.50;;;4.30;99.90;;;;;;5050357;28;20032;-51
2022/11/29 13:20:26;;;;;;;55.22;27.83;;;4.30;99.90;;;;;;5050625;28;20382;-52
2022/11/29 13:23:19;;;;;;;57.20;31.10;;;4.40;99.90;;;;;;5050360;28;20029;-51
2022/11/29 13:25:50;;;;;;;62.35;32.95;;;4.40;99.90;;;;;;5049058;28;20484;-52
2022/11/29 13:28:28;;;;;;;55.88;27.33;;;4.50;99.90;;;;;;5050553;28;20033;-50
2022/11/29 13:30:59;;;;;;;52.60;30.60;;;4.40;99.90;;;;;;5050225;28;20025;-52
2022/11/29 13:33:47;;;;;;;112.50;65.38;;;4.40;99.90;;;;;;5050206;28;20387;-49
2022/11/29 13:36:32;;;;;;;52.72;31.33;;;4.30;99.90;;;;;;5050356;27;20017;-50
2022/11/29 13:39:12;;;;;;;49.83;26.98;;;4.30;99.90;;;;;;5049054;28;20186;-50
2022/11/29 13:41:57;;;;;;;51.63;26.90;;;4.40;99.90;;;;;;5050255;28;20021;-50
2022/11/29 13:44:46;;;;;;;50.97;26.33;;;4.40;99.90;;;;;;5050339;28;20025;-49